Time;durP1;ratioP1;P1;durP2;ratioP2;P2;SDS_P1;SDS_P2;PMS_P1;PMS_P2;Temp;Humidity;BMP_temperature;BMP_pressure;BME280_temperature;BME280_humidity;BME280_pressure;Samples;Min_cycle;Max_cycle;Signal;HPM_P1;HPM_P2
2023/06/14 00:00:40;;;;;;;11.38;4.13;;;;;;;;;;5031858;28;20433;-73
2023/06/14 00:03:08;;;;;;;9.75;3.65;;;;;;;;;;5033126;28;20029;-76
2023/06/14 00:05:38;;;;;;;9.60;4.00;;;;;;;;;;5032963;28;20148;-73
2023/06/14 00:08:07;;;;;;;15.00;4.10;;;;;;;;;;5033198;28;20412;-73
2023/06/14 00:10:35;;;;;;;12.45;3.88;;;;;;;;;;5033206;28;20034;-72
2023/06/14 00:13:01;;;;;;;9.43;3.88;;;;;;;;;;5032858;28;20434;-74
2023/06/14 00:15:27;;;;;;;11.68;3.83;;;;;;;;;;5033112;28;20031;-72
2023/06/14 00:17:54;;;;;;;8.93;3.78;;;;;;;;;;5033073;28;20026;-72
2023/06/14 00:20:20;;;;;;;11.07;4.35;;;;;;;;;;5032795;28;20021;-72
2023/06/14 00:22:47;;;;;;;12.38;3.90;;;;;;;;;;5033118;28;20037;-73
2023/06/14 00:25:13;;;;;;;9.70;4.03;;;;;;;;;;5033079;28;20096;-74
2023/06/14 00:27:39;;;;;;;15.63;4.10;;;;;;;;;;5033207;28;20026;-74
2023/06/14 00:30:06;;;;;;;14.57;4.80;;;;;;;;;;5033446;28;20025;-73
2023/06/14 00:32:32;;;;;;;16.92;4.57;;;;;;;;;;5033186;28;20061;-74
2023/06/14 00:34:58;;;;;;;13.18;4.40;;;;;;;;;;5033803;28;20057;-74
2023/06/14 00:37:23;;;;;;;19.02;4.78;;;;;;;;;;5033533;28;20056;-72
2023/06/14 00:39:49;;;;;;;10.27;4.55;;;;;;;;;;5037131;28;20067;-72
2023/06/14 00:42:28;;;;;;;11.75;3.90;;;;;;;;;;5037852;28;20083;-72
2023/06/14 00:44:55;;;;;;;19.42;4.50;;;;;;;;;;5038705;28;20060;-72
2023/06/14 00:47:21;;;;;;;10.30;4.47;;;;;;;;;;5036773;28;20028;-71
2023/06/14 00:49:48;;;;;;;13.10;4.93;;;;;;;;;;5034443;28;20053;-73
2023/06/14 00:52:14;;;;;;;10.32;3.95;;;;;;;;;;5033480;28;20029;-72
2023/06/14 00:54:44;;;;;;;11.70;3.80;;;;;;;;;;5032180;28;20541;-72
2023/06/14 00:57:10;;;;;;;10.63;4.35;;;;;;;;;;5032308;28;20108;-73
2023/06/14 00:59:47;;;;;;;11.98;4.85;;;;;;;;;;5032352;28;20104;-72
2023/06/14 01:02:14;;;;;;;11.68;4.32;;;;;;;;;;5032057;28;20108;-73
2023/06/14 01:04:41;;;;;;;11.57;4.72;;;;;;;;;;5032417;28;20014;-73
2023/06/14 01:07:32;;;;;;;11.13;4.65;;;;;;;;;;5032831;28;20028;-73
2023/06/14 01:09:58;;;;;;;20.45;4.32;;;;;;;;;;5031780;28;20037;-72
2023/06/14 01:12:35;;;;;;;17.75;4.60;;;;;;;;;;5031643;28;20036;-72
2023/06/14 01:15:01;;;;;;;17.63;4.55;;;;;;;;;;5032034;28;20029;-72
2023/06/14 01:17:31;;;;;;;13.57;4.30;;;;;;;;;;5031758;28;20450;-72
2023/06/14 01:19:57;;;;;;;16.40;5.00;;;;;;;;;;5031691;28;20395;-72
2023/06/14 01:22:26;;;;;;;10.60;4.47;;;;;;;;;;5032114;28;20117;-73
2023/06/14 01:24:55;;;;;;;16.20;4.93;;;;;;;;;;5032352;28;20025;-73
2023/06/14 01:27:23;;;;;;;12.65;5.07;;;;;;;;;;5031853;28;20018;-73
2023/06/14 01:29:50;;;;;;;10.70;4.75;;;;;;;;;;5031737;28;20032;-73
2023/06/14 01:32:17;;;;;;;10.70;4.38;;;;;;;;;;5031295;28;20022;-73
2023/06/14 01:34:43;;;;;;;10.93;4.53;;;;;;;;;;5031482;28;20091;-72
2023/06/14 01:37:11;;;;;;;12.57;4.20;;;;;;;;;;5031637;28;20021;-72
2023/06/14 01:39:37;;;;;;;8.82;4.25;;;;;;;;;;5032520;28;20498;-72
2023/06/14 01:42:03;;;;;;;15.38;4.90;;;;;;;;;;5032262;28;20055;-74
2023/06/14 01:44:30;;;;;;;16.83;4.80;;;;;;;;;;5032192;28;20033;-71
2023/06/14 01:46:56;;;;;;;13.70;5.13;;;;;;;;;;5031346;28;20025;-71
2023/06/14 01:49:22;;;;;;;13.90;4.78;;;;;;;;;;5031352;28;20048;-72
2023/06/14 01:51:48;;;;;;;15.13;5.18;;;;;;;;;;5031173;28;20131;-72
2023/06/14 01:54:14;;;;;;;9.07;5.28;;;;;;;;;;5031961;28;20105;-73
2023/06/14 01:56:40;;;;;;;11.70;4.90;;;;;;;;;;5030583;28;20091;-72
2023/06/14 01:59:06;;;;;;;11.32;5.00;;;;;;;;;;5031352;28;20036;-73
2023/06/14 02:01:34;;;;;;;9.60;4.90;;;;;;;;;;5031235;28;20026;-72
2023/06/14 02:04:00;;;;;;;11.70;5.15;;;;;;;;;;5029200;28;20418;-73
2023/06/14 02:06:28;;;;;;;11.80;5.15;;;;;;;;;;5028682;28;20026;-73
2023/06/14 02:08:54;;;;;;;18.17;5.65;;;;;;;;;;5030062;28;20430;-73
2023/06/14 02:11:20;;;;;;;16.45;5.72;;;;;;;;;;5030083;28;20021;-72
2023/06/14 02:13:46;;;;;;;14.15;5.38;;;;;;;;;;5029571;28;20080;-73
2023/06/14 02:16:12;;;;;;;14.45;5.47;;;;;;;;;;5034700;28;20109;-73
2023/06/14 02:18:38;;;;;;;12.85;5.10;;;;;;;;;;5054424;28;20131;-73
2023/06/14 02:21:04;;;;;;;10.75;5.22;;;;;;;;;;5034585;28;20033;-72
2023/06/14 02:23:31;;;;;;;17.33;5.50;;;;;;;;;;5033701;28;20014;-73
2023/06/14 02:25:57;;;;;;;21.10;5.75;;;;;;;;;;5036108;28;20030;-72
2023/06/14 02:28:24;;;;;;;13.38;4.97;;;;;;;;;;5036385;28;20035;-73
2023/06/14 02:30:50;;;;;;;14.40;4.82;;;;;;;;;;5034071;28;20152;-73
2023/06/14 02:33:17;;;;;;;13.55;5.18;;;;;;;;;;5033611;28;20018;-72
2023/06/14 02:35:43;;;;;;;20.52;5.47;;;;;;;;;;5036387;28;20036;-72
2023/06/14 02:38:09;;;;;;;13.75;5.13;;;;;;;;;;5054061;28;20063;-73
2023/06/14 02:40:35;;;;;;;14.10;5.15;;;;;;;;;;5039147;28;20025;-73
2023/06/14 02:43:01;;;;;;;18.30;5.65;;;;;;;;;;5032362;28;20021;-73
2023/06/14 02:45:36;;;;;;;17.08;5.13;;;;;;;;;;5033120;28;20355;-72
2023/06/14 02:48:02;;;;;;;11.68;4.80;;;;;;;;;;5034027;28;20501;-71
2023/06/14 02:50:30;;;;;;;12.50;4.97;;;;;;;;;;5034714;28;20402;-72
2023/06/14 02:52:56;;;;;;;9.73;5.50;;;;;;;;;;5031394;28;20493;-72
2023/06/14 02:55:22;;;;;;;11.10;4.90;;;;;;;;;;5032705;28;20399;-72
2023/06/14 02:57:49;;;;;;;13.77;5.32;;;;;;;;;;5033534;28;20321;-72
2023/06/14 03:00:15;;;;;;;20.05;5.25;;;;;;;;;;5033593;28;20065;-73
2023/06/14 03:02:42;;;;;;;14.38;5.65;;;;;;;;;;5032329;28;20025;-73
2023/06/14 03:05:09;;;;;;;16.25;6.15;;;;;;;;;;5034697;28;20533;-73
2023/06/14 03:07:40;;;;;;;16.00;5.57;;;;;;;;;;5035743;28;20033;-77
2023/06/14 03:10:07;;;;;;;11.95;5.40;;;;;;;;;;5035151;28;20030;-71
2023/06/14 03:12:33;;;;;;;13.43;6.13;;;;;;;;;;5032628;28;20029;-72
2023/06/14 03:15:04;;;;;;;16.17;5.20;;;;;;;;;;5035197;28;20530;-73
2023/06/14 03:17:33;;;;;;;11.00;5.53;;;;;;;;;;5033091;28;20028;-73
2023/06/14 03:20:03;;;;;;;12.60;4.97;;;;;;;;;;5032999;28;20033;-73
2023/06/14 03:22:29;;;;;;;14.85;5.70;;;;;;;;;;5032723;28;20025;-72
2023/06/14 03:24:55;;;;;;;22.42;6.88;;;;;;;;;;5033397;28;20327;-72
2023/06/14 03:27:21;;;;;;;18.70;6.32;;;;;;;;;;5033567;28;20025;-73
2023/06/14 03:29:47;;;;;;;16.52;5.70;;;;;;;;;;5034016;28;20566;-72
2023/06/14 03:32:13;;;;;;;18.20;6.28;;;;;;;;;;5032172;28;20108;-73
2023/06/14 03:34:39;;;;;;;17.05;5.90;;;;;;;;;;5032115;28;20025;-72
2023/06/14 03:37:05;;;;;;;20.65;5.97;;;;;;;;;;5032600;28;20036;-72
2023/06/14 03:39:31;;;;;;;12.70;5.45;;;;;;;;;;5032562;28;20083;-72
2023/06/14 03:41:57;;;;;;;13.85;5.03;;;;;;;;;;5032107;28;20030;-73
2023/06/14 03:44:23;;;;;;;13.05;5.20;;;;;;;;;;5034081;28;20068;-70
2023/06/14 03:46:49;;;;;;;15.68;5.03;;;;;;;;;;5034225;28;20021;-72
2023/06/14 03:49:16;;;;;;;14.25;4.80;;;;;;;;;;5033664;28;20343;-73
2023/06/14 03:51:42;;;;;;;12.85;5.68;;;;;;;;;;5033829;28;20029;-75
2023/06/14 03:54:09;;;;;;;11.40;5.35;;;;;;;;;;5032700;28;20021;-72
2023/06/14 03:56:35;;;;;;;15.85;5.65;;;;;;;;;;5033359;28;20104;-74
2023/06/14 03:59:02;;;;;;;15.77;6.00;;;;;;;;;;5033250;28;20137;-73
2023/06/14 04:01:29;;;;;;;16.33;5.93;;;;;;;;;;5033022;28;20033;-72
2023/06/14 04:03:56;;;;;;;17.08;6.20;;;;;;;;;;5033287;28;20026;-71
2023/06/14 04:06:24;;;;;;;15.82;5.53;;;;;;;;;;5033419;28;20017;-72
2023/06/14 04:08:50;;;;;;;14.15;5.32;;;;;;;;;;5033536;28;20037;-72
2023/06/14 04:11:16;;;;;;;14.13;6.10;;;;;;;;;;5033291;28;20079;-72
2023/06/14 04:13:42;;;;;;;13.77;5.22;;;;;;;;;;5033032;28;20026;-70
2023/06/14 04:16:08;;;;;;;15.32;5.55;;;;;;;;;;5031657;28;20025;-71
2023/06/14 04:18:34;;;;;;;10.80;5.25;;;;;;;;;;5032822;28;20109;-69
2023/06/14 04:21:00;;;;;;;11.57;6.00;;;;;;;;;;5032593;28;20051;-71
2023/06/14 04:23:28;;;;;;;13.07;5.10;;;;;;;;;;5032208;28;20029;-72
2023/06/14 04:25:54;;;;;;;18.35;6.15;;;;;;;;;;5032650;28;20028;-71
2023/06/14 04:28:20;;;;;;;15.57;5.40;;;;;;;;;;5032682;28;20030;-71
2023/06/14 04:30:47;;;;;;;14.65;5.68;;;;;;;;;;5032589;28;20104;-75
2023/06/14 04:33:13;;;;;;;11.43;5.40;;;;;;;;;;5032554;28;20364;-71
2023/06/14 04:35:40;;;;;;;12.45;5.50;;;;;;;;;;5032592;28;20022;-74
2023/06/14 04:38:09;;;;;;;18.17;6.32;;;;;;;;;;5032817;28;20025;-71
2023/06/14 04:40:42;;;;;;;12.57;5.18;;;;;;;;;;5032138;28;20032;-72
2023/06/14 04:43:12;;;;;;;18.05;6.38;;;;;;;;;;5032138;28;20510;-72
2023/06/14 04:45:39;;;;;;;14.23;5.45;;;;;;;;;;5030797;28;20025;-72
2023/06/14 04:48:06;;;;;;;12.45;5.72;;;;;;;;;;5032547;28;20021;-73
2023/06/14 04:50:32;;;;;;;22.45;5.88;;;;;;;;;;5032534;28;20052;-73
2023/06/14 04:52:59;;;;;;;24.65;6.22;;;;;;;;;;5032400;28;20053;-74
2023/06/14 04:55:26;;;;;;;16.38;5.10;;;;;;;;;;5032632;28;20029;-72
2023/06/14 04:57:53;;;;;;;16.10;5.57;;;;;;;;;;5032880;28;20025;-72
2023/06/14 05:00:19;;;;;;;12.45;5.15;;;;;;;;;;5032365;28;20472;-73
2023/06/14 05:02:46;;;;;;;16.05;5.28;;;;;;;;;;5031739;28;20383;-73
2023/06/14 05:05:12;;;;;;;15.52;5.68;;;;;;;;;;5032054;28;20017;-72
2023/06/14 05:07:39;;;;;;;17.52;5.60;;;;;;;;;;5032324;28;20025;-75
2023/06/14 05:10:05;;;;;;;16.50;5.70;;;;;;;;;;5031703;28;20456;-74
2023/06/14 05:12:32;;;;;;;14.18;5.18;;;;;;;;;;5033665;28;20083;-72
2023/06/14 05:15:00;;;;;;;16.33;6.05;;;;;;;;;;5034385;28;20037;-71
2023/06/14 05:17:27;;;;;;;13.10;5.32;;;;;;;;;;5033162;28;20029;-73
2023/06/14 05:19:55;;;;;;;10.65;5.30;;;;;;;;;;5031204;28;20040;-72
2023/06/14 05:22:21;;;;;;;15.85;6.68;;;;;;;;;;5036389;28;20033;-72
2023/06/14 05:24:48;;;;;;;11.80;5.00;;;;;;;;;;5032806;28;20040;-71
2023/06/14 05:27:14;;;;;;;11.95;4.97;;;;;;;;;;5031774;28;20041;-71
2023/06/14 05:29:40;;;;;;;14.73;5.25;;;;;;;;;;5032006;28;20033;-72
2023/06/14 05:32:06;;;;;;;11.10;5.00;;;;;;;;;;5025743;28;20029;-71
2023/06/14 05:34:32;;;;;;;16.65;5.32;;;;;;;;;;5032511;28;20148;-71
2023/06/14 05:36:58;;;;;;;17.67;5.47;;;;;;;;;;5032787;28;20056;-71
2023/06/14 05:39:24;;;;;;;18.90;5.00;;;;;;;;;;5032674;28;20044;-71
2023/06/14 05:41:50;;;;;;;9.55;4.63;;;;;;;;;;5031985;28;20018;-72
2023/06/14 05:44:16;;;;;;;19.17;5.63;;;;;;;;;;5032150;28;20037;-71
2023/06/14 05:46:42;;;;;;;17.48;4.80;;;;;;;;;;5031458;28;20028;-73
2023/06/14 05:49:08;;;;;;;14.45;5.82;;;;;;;;;;5031487;28;20033;-71
2023/06/14 05:51:35;;;;;;;24.02;5.38;;;;;;;;;;5033170;28;20026;-71
2023/06/14 05:54:01;;;;;;;14.40;4.45;;;;;;;;;;5034938;28;20067;-71
2023/06/14 05:56:27;;;;;;;11.88;4.25;;;;;;;;;;5035701;28;20425;-72
2023/06/14 05:58:53;;;;;;;20.60;5.03;;;;;;;;;;5036109;28;20028;-73
2023/06/14 06:01:20;;;;;;;11.90;5.10;;;;;;;;;;5036470;28;20034;-74
2023/06/14 06:03:46;;;;;;;19.33;5.15;;;;;;;;;;5034973;28;20030;-75
2023/06/14 06:06:12;;;;;;;13.88;5.90;;;;;;;;;;5035705;28;20021;-72
2023/06/14 06:08:38;;;;;;;14.98;4.82;;;;;;;;;;5035621;28;20034;-70
2023/06/14 06:11:04;;;;;;;13.75;4.80;;;;;;;;;;5037263;28;20029;-71
2023/06/14 06:13:30;;;;;;;13.27;4.57;;;;;;;;;;5034711;28;20017;-73
2023/06/14 06:15:56;;;;;;;13.77;4.65;;;;;;;;;;5040220;28;20013;-71
2023/06/14 06:18:22;;;;;;;14.57;4.65;;;;;;;;;;5035660;28;20018;-73
2023/06/14 06:20:48;;;;;;;10.82;4.35;;;;;;;;;;5035741;28;20382;-73
2023/06/14 06:23:15;;;;;;;14.32;4.20;;;;;;;;;;5037376;28;20108;-73
2023/06/14 06:25:41;;;;;;;11.63;4.20;;;;;;;;;;5035348;28;20033;-72
2023/06/14 06:28:07;;;;;;;12.82;4.70;;;;;;;;;;5036595;28;20032;-74
2023/06/14 06:30:33;;;;;;;9.55;4.15;;;;;;;;;;5035543;28;20029;-73
2023/06/14 06:32:59;;;;;;;11.93;4.68;;;;;;;;;;5034532;28;20029;-72
2023/06/14 06:35:25;;;;;;;10.93;3.92;;;;;;;;;;5035788;28;20025;-73
2023/06/14 06:37:51;;;;;;;13.18;4.40;;;;;;;;;;5037378;28;20144;-72
2023/06/14 06:40:17;;;;;;;13.13;4.00;;;;;;;;;;5035597;28;20053;-72
2023/06/14 06:42:43;;;;;;;15.52;4.60;;;;;;;;;;5034265;28;20061;-70
2023/06/14 06:45:09;;;;;;;15.75;3.40;;;;;;;;;;5035019;28;20018;-72
2023/06/14 06:47:35;;;;;;;9.25;3.45;;;;;;;;;;5036889;28;20490;-71
2023/06/14 06:50:01;;;;;;;12.27;3.75;;;;;;;;;;5037007;28;20026;-72
2023/06/14 06:52:29;;;;;;;16.58;4.10;;;;;;;;;;5035495;28;20455;-73
2023/06/14 06:54:55;;;;;;;15.32;3.70;;;;;;;;;;5032917;28;20053;-71
2023/06/14 06:57:25;;;;;;;11.65;4.35;;;;;;;;;;5035939;28;20032;-73
2023/06/14 06:59:51;;;;;;;11.57;4.32;;;;;;;;;;5037521;28;20133;-72
2023/06/14 07:02:17;;;;;;;12.55;3.65;;;;;;;;;;5036656;28;20068;-75
2023/06/14 07:04:43;;;;;;;8.93;3.90;;;;;;;;;;5034820;28;20518;-74
2023/06/14 07:07:09;;;;;;;10.93;3.58;;;;;;;;;;5033703;28;20029;-73
2023/06/14 07:09:36;;;;;;;8.55;3.60;;;;;;;;;;5033768;28;20454;-72
2023/06/14 07:12:02;;;;;;;8.57;3.83;;;;;;;;;;5031867;28;20034;-73
2023/06/14 07:14:28;;;;;;;12.77;3.60;;;;;;;;;;5032233;28;20029;-74
2023/06/14 07:16:55;;;;;;;7.70;3.90;;;;;;;;;;5033301;28;20026;-71
2023/06/14 07:19:21;;;;;;;11.38;4.78;;;;;;;;;;5033385;28;20428;-71
2023/06/14 07:21:47;;;;;;;10.88;3.47;;;;;;;;;;5033608;28;20076;-71
2023/06/14 07:24:13;;;;;;;7.90;3.40;;;;;;;;;;5035281;28;20048;-71
2023/06/14 07:26:39;;;;;;;11.52;3.40;;;;;;;;;;5034481;28;20018;-71
2023/06/14 07:29:05;;;;;;;11.02;3.40;;;;;;;;;;5032757;28;20056;-72
2023/06/14 07:31:31;;;;;;;6.50;3.00;;;;;;;;;;5033720;28;20399;-70
2023/06/14 07:33:57;;;;;;;9.93;3.10;;;;;;;;;;5033539;28;20022;-73
2023/06/14 07:36:23;;;;;;;13.13;4.13;;;;;;;;;;5034142;28;20040;-72
2023/06/14 07:38:49;;;;;;;13.05;3.60;;;;;;;;;;5034112;28;20037;-74
2023/06/14 07:41:16;;;;;;;8.40;3.15;;;;;;;;;;5034130;28;20052;-75
2023/06/14 07:43:42;;;;;;;7.90;3.28;;;;;;;;;;5032398;28;20036;-73
2023/06/14 07:46:09;;;;;;;11.05;3.17;;;;;;;;;;5033450;28;20021;-72
2023/06/14 07:48:35;;;;;;;10.25;3.70;;;;;;;;;;5033896;28;20025;-72
2023/06/14 07:51:01;;;;;;;6.93;2.83;;;;;;;;;;5032171;28;20041;-71
2023/06/14 07:53:27;;;;;;;7.10;2.97;;;;;;;;;;5033338;28;20033;-73
2023/06/14 07:55:53;;;;;;;11.70;3.25;;;;;;;;;;5031941;28;20025;-71
2023/06/14 07:58:19;;;;;;;7.13;3.05;;;;;;;;;;5033255;28;20380;-70
2023/06/14 08:00:46;;;;;;;12.25;3.30;;;;;;;;;;5033121;28;20088;-70
2023/06/14 08:03:12;;;;;;;5.47;3.30;;;;;;;;;;5032706;28;20028;-70
2023/06/14 08:05:37;;;;;;;9.77;2.95;;;;;;;;;;5033043;28;20379;-71
2023/06/14 08:08:04;;;;;;;7.05;2.92;;;;;;;;;;5032892;28;20029;-70
2023/06/14 08:10:30;;;;;;;8.45;3.28;;;;;;;;;;5033184;28;20049;-72
2023/06/14 08:12:55;;;;;;;10.43;3.20;;;;;;;;;;5032516;28;20553;-74
2023/06/14 08:15:21;;;;;;;8.00;3.15;;;;;;;;;;5032483;28;20033;-72
2023/06/14 08:17:47;;;;;;;10.40;2.90;;;;;;;;;;5032774;28;20108;-73
2023/06/14 08:20:16;;;;;;;10.82;3.45;;;;;;;;;;5032902;28;20112;-75
2023/06/14 08:22:42;;;;;;;15.43;2.83;;;;;;;;;;5032694;28;20029;-73
2023/06/14 08:25:08;;;;;;;6.22;3.00;;;;;;;;;;5032488;28;20079;-71
2023/06/14 08:27:35;;;;;;;10.77;3.20;;;;;;;;;;5033085;28;20033;-71
2023/06/14 08:30:02;;;;;;;11.38;3.50;;;;;;;;;;5033003;28;20076;-70
2023/06/14 08:32:28;;;;;;;12.45;3.20;;;;;;;;;;5032216;28;20021;-71
2023/06/14 08:34:54;;;;;;;8.65;2.97;;;;;;;;;;5032906;28;20429;-71
2023/06/14 08:37:20;;;;;;;10.38;2.72;;;;;;;;;;5031828;28;20026;-71
2023/06/14 08:39:46;;;;;;;9.93;3.42;;;;;;;;;;5033047;28;20064;-71
2023/06/14 08:42:13;;;;;;;12.88;5.13;;;;;;;;;;5033407;28;20029;-69
2023/06/14 08:44:39;;;;;;;15.15;3.97;;;;;;;;;;5033372;28;20017;-71
2023/06/14 08:47:06;;;;;;;9.18;3.45;;;;;;;;;;5031892;28;20025;-71
2023/06/14 08:49:33;;;;;;;11.85;3.30;;;;;;;;;;5033191;28;20504;-70
2023/06/14 08:51:59;;;;;;;12.13;3.40;;;;;;;;;;5033444;28;20025;-71
2023/06/14 08:54:34;;;;;;;8.20;2.90;;;;;;;;;;5032885;28;20459;-71
2023/06/14 08:57:00;;;;;;;10.93;3.03;;;;;;;;;;5032046;28;20129;-71
2023/06/14 08:59:26;;;;;;;9.80;3.53;;;;;;;;;;5031858;28;20030;-69
2023/06/14 09:01:54;;;;;;;8.50;3.25;;;;;;;;;;5031477;28;20121;-70
2023/06/14 09:04:21;;;;;;;8.73;3.22;;;;;;;;;;5032192;28;20030;-70
2023/06/14 09:06:52;;;;;;;11.93;3.17;;;;;;;;;;5032087;28;20030;-71
2023/06/14 09:09:18;;;;;;;17.10;3.47;;;;;;;;;;5031688;28;20033;-70
2023/06/14 09:11:44;;;;;;;10.68;3.85;;;;;;;;;;5031597;28;20033;-71
2023/06/14 09:14:10;;;;;;;16.45;4.35;;;;;;;;;;5031749;28;20022;-70
2023/06/14 09:16:37;;;;;;;12.82;3.95;;;;;;;;;;5031677;28;20444;-70
2023/06/14 09:19:03;;;;;;;9.85;2.95;;;;;;;;;;5031886;28;20056;-70
2023/06/14 09:21:34;;;;;;;9.80;3.50;;;;;;;;;;5031594;28;20064;-70
2023/06/14 09:24:00;;;;;;;10.80;3.20;;;;;;;;;;5030343;28;20029;-71
2023/06/14 09:26:27;;;;;;;13.07;3.25;;;;;;;;;;5028999;28;20021;-70
2023/06/14 09:28:55;;;;;;;7.80;3.38;;;;;;;;;;5031567;28;20487;-71
2023/06/14 09:31:22;;;;;;;15.30;3.28;;;;;;;;;;5031723;28;20104;-71
2023/06/14 09:33:49;;;;;;;11.52;3.60;;;;;;;;;;5030677;28;20030;-71
2023/06/14 09:36:19;;;;;;;9.27;3.17;;;;;;;;;;5031468;28;20029;-70
2023/06/14 09:38:54;;;;;;;10.27;3.47;;;;;;;;;;5031565;28;20036;-73
2023/06/14 09:41:20;;;;;;;10.23;3.90;;;;;;;;;;5031500;28;20021;-74
2023/06/14 09:43:47;;;;;;;15.75;3.70;;;;;;;;;;5031544;28;20021;-74
2023/06/14 09:46:14;;;;;;;6.22;3.10;;;;;;;;;;5030495;28;20024;-69
2023/06/14 09:48:42;;;;;;;13.57;3.35;;;;;;;;;;5031508;28;20013;-70
2023/06/14 09:51:09;;;;;;;11.82;3.95;;;;;;;;;;5031376;28;20024;-71
2023/06/14 09:53:36;;;;;;;8.13;3.53;;;;;;;;;;5031086;28;20481;-69
2023/06/14 09:56:02;;;;;;;9.02;3.78;;;;;;;;;;5031386;28;20023;-72
2023/06/14 09:58:29;;;;;;;15.73;3.67;;;;;;;;;;5031512;28;20025;-71
2023/06/14 10:00:55;;;;;;;9.65;3.65;;;;;;;;;;5031280;28;20040;-69
2023/06/14 10:03:25;;;;;;;17.15;4.00;;;;;;;;;;5031286;28;20025;-71
2023/06/14 10:05:51;;;;;;;12.60;3.25;;;;;;;;;;5031328;28;20437;-72
2023/06/14 10:08:19;;;;;;;14.80;3.75;;;;;;;;;;5031074;28;20030;-70
2023/06/14 10:10:46;;;;;;;8.75;3.88;;;;;;;;;;5030707;28;20030;-71
2023/06/14 10:13:12;;;;;;;8.43;3.22;;;;;;;;;;5031182;28;20029;-72
2023/06/14 10:15:38;;;;;;;6.97;3.50;;;;;;;;;;5031399;28;20123;-71
2023/06/14 10:18:24;;;;;;;12.98;3.80;;;;;;;;;;5031265;28;20037;-71
2023/06/14 10:20:59;;;;;;;10.77;3.55;;;;;;;;;;5031661;28;20041;-71
2023/06/14 10:23:26;;;;;;;9.48;3.60;;;;;;;;;;5031006;28;20026;-71
2023/06/14 10:25:57;;;;;;;10.40;3.30;;;;;;;;;;5031537;28;20029;-70
2023/06/14 10:28:24;;;;;;;12.73;3.42;;;;;;;;;;5031426;28;20018;-71
2023/06/14 10:31:07;;;;;;;14.23;4.30;;;;;;;;;;5031464;28;20502;-70
2023/06/14 10:33:34;;;;;;;8.07;3.35;;;;;;;;;;5032242;28;20167;-72
2023/06/14 10:36:09;;;;;;;8.57;2.95;;;;;;;;;;5031155;28;20030;-69
2023/06/14 10:38:36;;;;;;;9.15;3.40;;;;;;;;;;5034715;28;20510;-69
2023/06/14 10:41:03;;;;;;;12.77;3.42;;;;;;;;;;5035701;28;20022;-71
2023/06/14 10:43:29;;;;;;;8.45;3.30;;;;;;;;;;5035168;28;20065;-72
2023/06/14 10:46:24;;;;;;;9.95;3.60;;;;;;;;;;5034509;28;20056;-74
2023/06/14 10:48:50;;;;;;;;;;;;;;;;;;5034081;28;20391;-72
2023/06/14 10:51:21;;;;;;;15.77;3.85;;;;;;;;;;5033901;28;19905;-74
2023/06/14 10:53:50;;;;;;;8.43;3.67;;;;;;;;;;5034186;28;20052;-71
2023/06/14 10:56:42;;;;;;;10.15;3.13;;;;;;;;;;5034615;28;20057;-71
2023/06/14 10:59:08;;;;;;;9.63;4.18;;;;;;;;;;5034127;28;20083;-71
2023/06/14 11:01:39;;;;;;;12.38;3.17;;;;;;;;;;5034111;28;20029;-71
2023/06/14 11:04:11;;;;;;;7.30;3.38;;;;;;;;;;5034115;28;20026;-71
2023/06/14 11:06:57;;;;;;;8.50;3.33;;;;;;;;;;5034205;28;20017;-72
2023/06/14 11:09:23;;;;;;;8.40;3.67;;;;;;;;;;5034475;28;20030;-70
2023/06/14 11:11:49;;;;;;;8.45;3.40;;;;;;;;;;5034841;28;20088;-74
2023/06/14 11:14:16;;;;;;;14.10;3.38;;;;;;;;;;5034227;28;20040;-71
2023/06/14 11:16:42;;;;;;;9.48;3.58;;;;;;;;;;5034289;28;20087;-70
2023/06/14 11:19:08;;;;;;;12.25;3.30;;;;;;;;;;5034102;28;20034;-71
2023/06/14 11:21:34;;;;;;;8.80;3.50;;;;;;;;;;5034064;28;20475;-71
2023/06/14 11:24:00;;;;;;;15.48;3.72;;;;;;;;;;5033992;28;20052;-71
2023/06/14 11:26:27;;;;;;;10.32;3.40;;;;;;;;;;5034084;28;20101;-71
2023/06/14 11:28:55;;;;;;;11.75;3.28;;;;;;;;;;5033703;28;20294;-72
2023/06/14 11:31:21;;;;;;;10.95;3.15;;;;;;;;;;5033759;28;20030;-72
2023/06/14 11:33:50;;;;;;;12.80;3.20;;;;;;;;;;5033296;28;20495;-69
2023/06/14 11:36:16;;;;;;;11.27;3.60;;;;;;;;;;5033564;28;20056;-71
2023/06/14 11:38:42;;;;;;;10.25;5.65;;;;;;;;;;5033602;28;20017;-70
2023/06/14 11:41:08;;;;;;;18.27;4.50;;;;;;;;;;5033695;28;20028;-70
2023/06/14 11:43:35;;;;;;;8.13;3.58;;;;;;;;;;5033637;28;20021;-70
2023/06/14 11:46:01;;;;;;;8.05;3.55;;;;;;;;;;5033625;28;20025;-70
2023/06/14 11:48:37;;;;;;;13.85;2.90;;;;;;;;;;5030613;28;20430;-71
2023/06/14 11:51:03;;;;;;;15.30;3.58;;;;;;;;;;5033395;28;20068;-70
2023/06/14 11:53:30;;;;;;;7.93;3.47;;;;;;;;;;5032707;28;20036;-69
2023/06/14 11:55:56;;;;;;;12.82;3.33;;;;;;;;;;5033314;28;20368;-69
2023/06/14 11:58:22;;;;;;;8.50;3.17;;;;;;;;;;5033588;28;20029;-70
2023/06/14 12:00:52;;;;;;;7.65;3.75;;;;;;;;;;5033329;28;20037;-70
2023/06/14 12:03:22;;;;;;;9.10;3.60;;;;;;;;;;5032364;28;20033;-71
2023/06/14 12:05:49;;;;;;;10.95;3.55;;;;;;;;;;5033080;28;20046;-71
2023/06/14 12:08:17;;;;;;;11.75;3.10;;;;;;;;;;5032898;28;20037;-75
2023/06/14 12:10:43;;;;;;;11.88;3.00;;;;;;;;;;5033157;28;20099;-71
2023/06/14 12:13:10;;;;;;;10.05;3.45;;;;;;;;;;5033181;28;20029;-71
2023/06/14 12:15:36;;;;;;;12.65;3.40;;;;;;;;;;5032884;28;20079;-72
2023/06/14 12:18:06;;;;;;;10.55;3.03;;;;;;;;;;5033707;28;20501;-70
2023/06/14 12:20:32;;;;;;;10.40;2.75;;;;;;;;;;5032914;28;20022;-71
2023/06/14 12:23:03;;;;;;;9.02;2.80;;;;;;;;;;5031742;28;20032;-70
2023/06/14 12:25:32;;;;;;;10.52;3.08;;;;;;;;;;5033391;28;20029;-71
2023/06/14 12:28:08;;;;;;;9.68;3.40;;;;;;;;;;5033098;28;20026;-71
2023/06/14 12:30:35;;;;;;;10.57;2.80;;;;;;;;;;5032769;28;20103;-73
2023/06/14 12:33:01;;;;;;;13.93;5.15;;;;;;;;;;5031513;28;20025;-70
2023/06/14 12:35:27;;;;;;;16.73;2.95;;;;;;;;;;5033411;28;20491;-71
2023/06/14 12:37:53;;;;;;;14.70;3.28;;;;;;;;;;5033078;28;20072;-70
2023/06/14 12:40:19;;;;;;;19.55;8.65;;;;;;;;;;5033353;28;20083;-69
2023/06/14 12:42:47;;;;;;;9.05;3.30;;;;;;;;;;5032827;28;20120;-71
2023/06/14 12:45:13;;;;;;;11.32;3.33;;;;;;;;;;5033181;28;20075;-71
2023/06/14 12:47:39;;;;;;;18.30;3.40;;;;;;;;;;5035235;28;20099;-73
2023/06/14 12:50:06;;;;;;;16.90;3.90;;;;;;;;;;5033577;28;20168;-73
2023/06/14 12:52:35;;;;;;;9.60;3.25;;;;;;;;;;5032010;28;20104;-75
2023/06/14 12:55:01;;;;;;;11.00;3.88;;;;;;;;;;5035843;28;20434;-74
2023/06/14 12:57:27;;;;;;;12.68;3.40;;;;;;;;;;5037416;28;20117;-72
2023/06/14 12:59:53;;;;;;;6.68;2.95;;;;;;;;;;5034280;28;20029;-75
2023/06/14 13:02:24;;;;;;;7.40;3.28;;;;;;;;;;5035910;28;20065;-71
2023/06/14 13:04:50;;;;;;;9.95;2.88;;;;;;;;;;5041994;28;20020;-71
2023/06/14 13:07:16;;;;;;;11.80;3.28;;;;;;;;;;5036336;28;20018;-72
2023/06/14 13:09:42;;;;;;;9.90;3.20;;;;;;;;;;5031020;28;20036;-71
2023/06/14 13:12:11;;;;;;;14.18;3.33;;;;;;;;;;5032193;28;20706;-71
2023/06/14 13:14:37;;;;;;;6.20;3.35;;;;;;;;;;5032209;28;20057;-71
2023/06/14 13:17:03;;;;;;;15.75;3.35;;;;;;;;;;5031875;28;20030;-72
2023/06/14 13:19:30;;;;;;;15.48;3.83;;;;;;;;;;5033048;28;20033;-71
2023/06/14 13:21:56;;;;;;;8.93;5.35;;;;;;;;;;5037857;28;20025;-71
2023/06/14 13:24:22;;;;;;;9.35;3.20;;;;;;;;;;5032135;28;20144;-73
2023/06/14 13:26:48;;;;;;;11.00;3.47;;;;;;;;;;5032155;28;20048;-72
2023/06/14 13:29:14;;;;;;;9.30;3.80;;;;;;;;;;5034092;28;20033;-75
2023/06/14 13:31:40;;;;;;;12.70;3.60;;;;;;;;;;5033886;28;20037;-72
2023/06/14 13:34:06;;;;;;;10.77;3.13;;;;;;;;;;5031674;28;20086;-70
2023/06/14 13:36:32;;;;;;;9.52;3.30;;;;;;;;;;5032409;28;20034;-71
2023/06/14 13:38:58;;;;;;;5.72;3.10;;;;;;;;;;5032313;28;20079;-71
2023/06/14 13:41:31;;;;;;;9.35;3.00;;;;;;;;;;5033195;28;20030;-72
2023/06/14 13:43:57;;;;;;;9.48;3.20;;;;;;;;;;5033439;28;20029;-71
2023/06/14 13:46:23;;;;;;;13.25;3.47;;;;;;;;;;5034605;28;20029;-72
2023/06/14 13:48:49;;;;;;;8.65;3.00;;;;;;;;;;5032241;28;20120;-73
2023/06/14 13:51:17;;;;;;;4.68;3.00;;;;;;;;;;5032661;28;20493;-71
2023/06/14 13:53:43;;;;;;;9.48;2.97;;;;;;;;;;5031848;28;20522;-72
2023/06/14 13:56:10;;;;;;;7.53;3.03;;;;;;;;;;5033721;28;20032;-71
2023/06/14 13:58:36;;;;;;;14.60;3.55;;;;;;;;;;5037864;28;20082;-72
2023/06/14 14:01:02;;;;;;;6.75;3.00;;;;;;;;;;5036232;28;20064;-71
2023/06/14 14:03:28;;;;;;;8.07;3.08;;;;;;;;;;5033814;28;20033;-72
2023/06/14 14:05:54;;;;;;;13.52;3.80;;;;;;;;;;5032642;28;20475;-74
2023/06/14 14:08:20;;;;;;;11.93;3.38;;;;;;;;;;5031419;28;20026;-72
2023/06/14 14:10:46;;;;;;;7.80;4.60;;;;;;;;;;5031486;28;20104;-71
2023/06/14 14:13:12;;;;;;;12.35;4.75;;;;;;;;;;5033932;28;20053;-70
2023/06/14 14:15:38;;;;;;;9.05;2.65;;;;;;;;;;5035948;28;20430;-72
2023/06/14 14:18:05;;;;;;;10.95;3.08;;;;;;;;;;5036214;28;20022;-73
2023/06/14 14:20:31;;;;;;;6.63;2.78;;;;;;;;;;5035734;28;20425;-73
2023/06/14 14:22:57;;;;;;;10.40;3.60;;;;;;;;;;5035589;28;20111;-70
2023/06/14 14:25:23;;;;;;;10.05;3.15;;;;;;;;;;5035418;28;20026;-70
2023/06/14 14:27:49;;;;;;;10.27;3.17;;;;;;;;;;5035616;28;20443;-73
2023/06/14 14:30:17;;;;;;;6.40;3.17;;;;;;;;;;5034418;28;20447;-72
2023/06/14 14:32:44;;;;;;;6.25;2.63;;;;;;;;;;5034847;28;20021;-73